Pagina principale
METAR-TAF:

METAR-TAF

Aeroporti :

Aeroporto di Pechino-Capitale

Pechino, Cina

latitudine: 39-56N, longitudine: 116-17E, altezza: 55 m

Osservazione

Il bollettino è stato emesso 28 minuti fa, alle 23:00 UTC
Vento 2 kt da direzioni variabili
Temperature 20°C
Umidità 68%
Pressione 1003 hPa
Visibilità 10 km o più
nessuna nube inferiore a 1500 m e nessun cumulonembo

METAR: ZBAA 242300Z VRB01MPS CAVOK 20/14 Q1003 NOSIG

Ora: 07:28 (23:28 UTC)

Previsione

Il bollettino è stato emesso 8 ore e 8 minuti fa, alle 15:20 UTC
Previsione valida dal 24 alle 18 UTC al 25 alle 18 UTC
Vento 8 kt da sud
Visibilità 10 km o più
nessuna nube inferiore a 1500 m e nessun cumulonembo

TAF: ZBAA 241520Z 2418/2518 18004MPS CAVOK TX34/2507Z TN13/2421Z

Osservazioni e previsioni meteorologiche di più di 4000 aeroporti (messaggi METAR e TAF).

Le stazioni disponibili sono rappresentate dai dischi gialli e rossi sulla carta.

Puntare il mouse per vedere il nome della stazione.

Clicca sopra per visualizzare le osservazioni e previsioni meteorologiche.

Per cambiare la mappa : fare clic sui pulsanti verdi con una croce nera per ingrandire, il pulsante verde con un trattino per diminuire, o sulla freccia verde per le mappe adiacenti.


METAR-TAF: